Nagaleader — VRDD5 — position and weather

sailwx.info

Track history (hours):
 
Tides and Currents Weather Stations Pressure Air Temp Water Temp Dewpoint Dewpoint Depression Visibility Wind Speed Wind Dir Waves Ship Positions

Nagaleader

Last reported at 2017-Jul-21 16:27 UTC. Time now 2017-Jul-21 22:52 UTC.
Position N 24°01' E 119°55'.

Length 113 m; draft 5.8 m.

Type: Cargo ship. MMSI: 477926700.

Date/timePositionNaut miles runAvg speedWind from/ knotsBaromVisibWave heightAir tempDewpointWater temp
2017-Jul-21 16:27N 24°01' E 119°55'612.5
2017-Jul-21 16:00N 23°55' E 119°56'612.8
2017-Jul-21 15:31N 23°49' E 119°55'813.3
2017-Jul-21 14:55N 23°41' E 119°55'513.6
2017-Jul-21 14:30N 23°35' E 119°55'713.5
2017-Jul-21 14:00N 23°29' E 119°56'1213.4
2017-Jul-21 13:05N 23°16' E 119°57'113.9
2017-Jul-21 13:00N 23°15' E 119°58'714.0
2017-Jul-21 12:30N 23°08' E 119°58'1013.8
2017-Jul-21 11:47N 22°58' E 120°00'913.4
2017-Jul-21 11:09N 22°50' E 120°04'213.2
2017-Jul-21 11:00N 22°49' E 120°05'612.6
2017-Jul-21 10:30N 22°43' E 120°08'611.8
2017-Jul-21 10:01N 22°39' E 120°12'510.1
2017-Jul-21 09:30N 22°37' E 120°17'4 7.0
2017-Jul-21 09:00N 22°34' E 120°19'0 0.0
2017-Jul-21 08:30N 22°34' E 120°19'0 0.0
2017-Jul-21 08:00N 22°34' E 120°19'0 0.0
2017-Jul-21 07:29N 22°34' E 120°19'0 0.0
2017-Jul-21 06:59N 22°34' E 120°19'0 0.0
2017-Jul-21 06:29N 22°34' E 120°19'0 0.0
2017-Jul-21 05:59N 22°34' E 120°19'0 0.0
2017-Jul-21 05:29N 22°34' E 120°19'0 0.0
2017-Jul-21 04:59N 22°34' E 120°19'0 0.0
2017-Jul-21 04:29N 22°34' E 120°19'0 0.0
2017-Jul-21 03:56N 22°34' E 120°19'0 0.2
2017-Jul-21 03:26N 22°34' E 120°19'0 0.1
2017-Jul-21 02:38N 22°34' E 120°19'0 0.3
2017-Jul-21 02:23N 22°34' E 120°19'0 0.2
2017-Jul-21 01:59N 22°34' E 120°19'0 0.0
2017-Jul-21 01:29N 22°34' E 120°19'0 0.0
2017-Jul-21 00:50N 22°34' E 120°19'0 0.0
2017-Jul-21 00:23N 22°34' E 120°19'0 0.0
2017-Jul-20 23:56N 22°34' E 120°19'0 0.0
2017-Jul-20 23:23N 22°34' E 120°19'0 0.0
2017-Jul-20 22:59N 22°34' E 120°19'0 0.1
2017-Jul-20 22:30N 22°34' E 120°19'2 4.5
2017-Jul-20 22:00N 22°33' E 120°17'2 4.9
2017-Jul-20 21:30N 22°31' E 120°14'2 3.1
2017-Jul-20 21:00N 22°31' E 120°13'5 9.8
2017-Jul-20 20:30N 22°35' E 120°11'612.2
2017-Jul-20 20:00N 22°41' E 120°09'611.8
2017-Jul-20 19:31N 22°46' E 120°06'8611.1
2017-Jul-20 11:45N 24°12' E 119°56'5110.8
2017-Jul-20 07:03N 25°03' E 119°58'68 9.5
2017-Jul-19 23:55N 26°08' E 119°35'4 9.8
2017-Jul-19 23:30N 26°06' E 119°32'5 9.2
2017-Jul-19 22:59N 26°01' E 119°30'1 2.5
2017-Jul-19 22:29N 26°00' E 119°29'0 0.1
2017-Jul-19 20:47N 26°00' E 119°29'0 0.0
2017-Jul-19 20:23N 26°00' E 119°29'0 0.0
2017-Jul-19 19:47N 26°00' E 119°29'0 0.0
2017-Jul-19 19:17N 26°00' E 119°29'0 0.0
2017-Jul-19 18:53N 26°00' E 119°29'0 0.0
2017-Jul-19 18:29N 26°00' E 119°29'0 0.0
2017-Jul-19 17:35N 26°00' E 119°29'0 0.0
2017-Jul-19 17:23N 26°00' E 119°29'0 0.0
2017-Jul-19 16:59N 26°00' E 119°29'0 0.0
2017-Jul-19 16:29N 26°00' E 119°29'0 0.0
2017-Jul-19 15:29N 26°00' E 119°29'0 0.0
2017-Jul-19 14:59N 26°00' E 119°29'0 0.0
2017-Jul-19 14:11N 26°00' E 119°29'0 0.0
2017-Jul-19 13:59N 26°00' E 119°29'0 0.0
2017-Jul-19 13:29N 26°00' E 119°29'0 0.0
2017-Jul-19 12:59N 26°00' E 119°29'0 0.0
2017-Jul-19 12:29N 26°00' E 119°29'0 0.0
2017-Jul-19 11:59N 26°00' E 119°29'0 0.0
2017-Jul-19 11:29N 26°00' E 119°29'0 0.0
2017-Jul-19 10:59N 26°00' E 119°29'0 0.0
2017-Jul-19 10:29N 26°00' E 119°29'0 0.0
2017-Jul-19 09:59N 26°00' E 119°29'0 0.0
2017-Jul-19 09:29N 26°00' E 119°29'0 0.0
2017-Jul-19 08:47N 26°00' E 119°29'0 0.0
2017-Jul-19 08:23N 26°00' E 119°29'0 0.0
2017-Jul-19 07:59N 26°00' E 119°29'0 0.0
2017-Jul-19 07:29N 26°00' E 119°29'0 0.0
2017-Jul-19 06:59N 26°00' E 119°29'0 0.0
2017-Jul-19 06:29N 26°00' E 119°29'0 0.0
2017-Jul-19 05:59N 26°00' E 119°29'0 0.0
2017-Jul-19 05:17N 26°00' E 119°29'0 0.0
2017-Jul-19 04:47N 26°00' E 119°29'0 0.0
2017-Jul-19 04:23N 26°00' E 119°29'0 0.0
2017-Jul-19 03:59N 26°00' E 119°29'0 0.0
2017-Jul-19 03:29N 26°00' E 119°29'0 0.0
2017-Jul-19 02:53N 26°00' E 119°29'0 0.0
2017-Jul-19 02:29N 26°00' E 119°29'0 0.0
2017-Jul-19 01:53N 26°00' E 119°29'0 0.0
2017-Jul-19 01:29N 26°00' E 119°29'0 0.0
2017-Jul-19 01:00N 26°00' E 119°29'1 1.2
2017-Jul-19 00:30N 26°01' E 119°29'5 9.6
2017-Jul-19 00:00N 26°05' E 119°32'197 9.9
2017-Jul-18 04:03N 22°50' E 120°05'212.8
2017-Jul-18 03:52N 22°48' E 120°06'512.7
2017-Jul-18 03:30N 22°44' E 120°08'612.5
2017-Jul-18 03:00N 22°38' E 120°11'611.6
2017-Jul-18 02:30N 22°33' E 120°13'510.7
2017-Jul-18 02:00N 22°33' E 120°19'0 0.7
2017-Jul-18 01:23N 22°34' E 120°19'0 0.0
2017-Jul-18 00:32N 22°34' E 120°19'0 0.0
2017-Jul-18 00:29N 22°34' E 120°19'0 0.0
2017-Jul-17 23:53N 22°34' E 120°19'0 0.0
2017-Jul-17 23:29N 22°34' E 120°19'0 0.0
2017-Jul-17 22:59N 22°34' E 120°19'0 0.0
2017-Jul-17 22:29N 22°34' E 120°19'0 0.0
2017-Jul-17 21:56N 22°34' E 120°19'0 0.0
2017-Jul-17 21:26N 22°34' E 120°19'0 0.0
2017-Jul-17 20:59N 22°34' E 120°19'0 0.0
2017-Jul-17 20:23N 22°34' E 120°19'0 0.0
2017-Jul-17 19:59N 22°34' E 120°19'0 0.0
2017-Jul-17 19:23N 22°34' E 120°19'0 0.0
2017-Jul-17 18:53N 22°34' E 120°19'0 0.0
2017-Jul-17 18:29N 22°34' E 120°19'0 0.0
2017-Jul-17 17:56N 22°34' E 120°19'0 0.0
2017-Jul-17 17:23N 22°34' E 120°19'0 0.0
2017-Jul-17 16:56N 22°34' E 120°19'1 0.1
2017-Jul-17 07:57N 22°33' E 120°20'3 7.0
2017-Jul-17 07:30N 22°33' E 120°17'3 6.2
2017-Jul-17 07:01N 22°32' E 120°13'3 6.1
2017-Jul-17 06:30N 22°34' E 120°11'611.1
2017-Jul-17 06:00N 22°39' E 120°09'511.0
2017-Jul-17 05:31N 22°44' E 120°07'  
2017-Jul-15 00:05N 22°33' E 120°18'1 6.5
2017-Jul-15 00:00N 22°33' E 120°19'1 0.1
2017-Jul-14 13:10N 22°33' E 120°20'1 5.4
2017-Jul-14 13:00N 22°33' E 120°19'0 0.6
2017-Jul-14 12:30N 22°34' E 120°19'0 0.0
2017-Jul-14 10:15N 22°34' E 120°19'0 0.0
2017-Jul-14 09:45N 22°34' E 120°19'0 0.0
2017-Jul-14 09:30N 22°34' E 120°19'0 0.0
2017-Jul-14 09:00N 22°34' E 120°19'0 0.0
2017-Jul-14 08:27N 22°34' E 120°19'0 0.0
2017-Jul-14 08:00N 22°34' E 120°19'0 0.0
2017-Jul-14 07:30N 22°34' E 120°19'0 0.0
2017-Jul-14 07:00N 22°34' E 120°19'0 0.0
2017-Jul-14 06:27N 22°34' E 120°19'0 0.0
2017-Jul-14 06:00N 22°34' E 120°19'0 0.0
2017-Jul-14 05:27N 22°34' E 120°19'0 0.0
2017-Jul-14 04:54N 22°34' E 120°19'0 0.0
2017-Jul-14 04:27N 22°34' E 120°19'0 0.0
2017-Jul-14 04:00N 22°34' E 120°19'0 0.0
2017-Jul-14 03:30N 22°34' E 120°19'0 0.0
2017-Jul-14 03:00N 22°34' E 120°19'0 0.0
2017-Jul-14 02:30N 22°34' E 120°19'0 0.0
2017-Jul-14 01:54N 22°34' E 120°19'0 0.0
2017-Jul-14 01:27N 22°34' E 120°19'0 0.0
2017-Jul-14 01:00N 22°34' E 120°19'0 0.0
2017-Jul-14 00:30N 22°34' E 120°19'0 0.0
2017-Jul-14 00:00N 22°34' E 120°19'1 1.0
2017-Jul-13 23:28N 22°33' E 120°19'3 7.3
2017-Jul-13 23:00N 22°32' E 120°16'0 0.4
2017-Jul-13 22:29N 22°32' E 120°15'0 0.0
2017-Jul-13 21:59N 22°32' E 120°15'0 0.1
2017-Jul-13 21:29N 22°32' E 120°15'0 0.1
2017-Jul-13 20:59N 22°32' E 120°15'0 0.0
2017-Jul-13 20:29N 22°32' E 120°15'0 0.1
2017-Jul-13 19:59N 22°32' E 120°15'0 0.0
2017-Jul-13 19:29N 22°32' E 120°15'0 0.0
2017-Jul-13 18:59N 22°32' E 120°15'0 0.0
2017-Jul-13 18:29N 22°32' E 120°15'0 0.0
2017-Jul-13 17:59N 22°32' E 120°15'0 0.0
2017-Jul-13 17:29N 22°32' E 120°15'0 0.0
2017-Jul-13 16:59N 22°32' E 120°15'0 0.1
2017-Jul-13 16:26N 22°32' E 120°15'0 0.1
2017-Jul-13 15:59N 22°32' E 120°15'0 0.1
2017-Jul-13 15:30N 22°32' E 120°15'3 6.0
2017-Jul-13 15:00N 22°33' E 120°12'611.5
2017-Jul-13 14:30N 22°38' E 120°10'611.2
2017-Jul-13 14:00N 22°43' E 120°08'510.7
2017-Jul-13 13:30N 22°48' E 120°05'  
Track history (hours):
 
Tides and Currents Weather Stations Pressure Air Temp Water Temp Dewpoint Dewpoint Depression Visibility Wind Speed Wind Dir Waves Ship Positions

Nagaleader

Last reported at 2017-Jul-21 16:27 UTC. Time now 2017-Jul-21 22:52 UTC.
Position N 24°01' E 119°55'.

Length 113 m; draft 5.8 m.

Type: Cargo ship. MMSI: 477926700.

Date/timePositionNaut miles runAvg speedWind from/ knotsBaromVisibWave heightAir tempDewpointWater temp
2017-Jul-21 16:27N 24°01' E 119°55'612.5
2017-Jul-21 16:00N 23°55' E 119°56'612.8
2017-Jul-21 15:31N 23°49' E 119°55'813.3
2017-Jul-21 14:55N 23°41' E 119°55'513.6
2017-Jul-21 14:30N 23°35' E 119°55'713.5
2017-Jul-21 14:00N 23°29' E 119°56'1213.4
2017-Jul-21 13:05N 23°16' E 119°57'113.9
2017-Jul-21 13:00N 23°15' E 119°58'714.0
2017-Jul-21 12:30N 23°08' E 119°58'1013.8
2017-Jul-21 11:47N 22°58' E 120°00'913.4
2017-Jul-21 11:09N 22°50' E 120°04'213.2
2017-Jul-21 11:00N 22°49' E 120°05'612.6
2017-Jul-21 10:30N 22°43' E 120°08'611.8
2017-Jul-21 10:01N 22°39' E 120°12'510.1
2017-Jul-21 09:30N 22°37' E 120°17'4 7.0
2017-Jul-21 09:00N 22°34' E 120°19'0 0.0
2017-Jul-21 08:30N 22°34' E 120°19'0 0.0
2017-Jul-21 08:00N 22°34' E 120°19'0 0.0
2017-Jul-21 07:29N 22°34' E 120°19'0 0.0
2017-Jul-21 06:59N 22°34' E 120°19'0 0.0
2017-Jul-21 06:29N 22°34' E 120°19'0 0.0
2017-Jul-21 05:59N 22°34' E 120°19'0 0.0
2017-Jul-21 05:29N 22°34' E 120°19'0 0.0
2017-Jul-21 04:59N 22°34' E 120°19'0 0.0
2017-Jul-21 04:29N 22°34' E 120°19'0 0.0
2017-Jul-21 03:56N 22°34' E 120°19'0 0.2
2017-Jul-21 03:26N 22°34' E 120°19'0 0.1
2017-Jul-21 02:38N 22°34' E 120°19'0 0.3
2017-Jul-21 02:23N 22°34' E 120°19'0 0.2
2017-Jul-21 01:59N 22°34' E 120°19'0 0.0
2017-Jul-21 01:29N 22°34' E 120°19'0 0.0
2017-Jul-21 00:50N 22°34' E 120°19'0 0.0
2017-Jul-21 00:23N 22°34' E 120°19'0 0.0
2017-Jul-20 23:56N 22°34' E 120°19'0 0.0
2017-Jul-20 23:23N 22°34' E 120°19'0 0.0
2017-Jul-20 22:59N 22°34' E 120°19'0 0.1
2017-Jul-20 22:30N 22°34' E 120°19'2 4.5
2017-Jul-20 22:00N 22°33' E 120°17'2 4.9
2017-Jul-20 21:30N 22°31' E 120°14'2 3.1
2017-Jul-20 21:00N 22°31' E 120°13'5 9.8
2017-Jul-20 20:30N 22°35' E 120°11'612.2
2017-Jul-20 20:00N 22°41' E 120°09'611.8
2017-Jul-20 19:31N 22°46' E 120°06'8611.1
2017-Jul-20 11:45N 24°12' E 119°56'5110.8
2017-Jul-20 07:03N 25°03' E 119°58'68 9.5
2017-Jul-19 23:55N 26°08' E 119°35'4 9.8
2017-Jul-19 23:30N 26°06' E 119°32'5 9.2
2017-Jul-19 22:59N 26°01' E 119°30'1 2.5
2017-Jul-19 22:29N 26°00' E 119°29'0 0.1
2017-Jul-19 20:47N 26°00' E 119°29'0 0.0
2017-Jul-19 20:23N 26°00' E 119°29'0 0.0
2017-Jul-19 19:47N 26°00' E 119°29'0 0.0
2017-Jul-19 19:17N 26°00' E 119°29'0 0.0
2017-Jul-19 18:53N 26°00' E 119°29'0 0.0
2017-Jul-19 18:29N 26°00' E 119°29'0 0.0
2017-Jul-19 17:35N 26°00' E 119°29'0 0.0
2017-Jul-19 17:23N 26°00' E 119°29'0 0.0
2017-Jul-19 16:59N 26°00' E 119°29'0 0.0
2017-Jul-19 16:29N 26°00' E 119°29'0 0.0
2017-Jul-19 15:29N 26°00' E 119°29'0 0.0
2017-Jul-19 14:59N 26°00' E 119°29'0 0.0
2017-Jul-19 14:11N 26°00' E 119°29'0 0.0
2017-Jul-19 13:59N 26°00' E 119°29'0 0.0
2017-Jul-19 13:29N 26°00' E 119°29'0 0.0
2017-Jul-19 12:59N 26°00' E 119°29'0 0.0
2017-Jul-19 12:29N 26°00' E 119°29'0 0.0
2017-Jul-19 11:59N 26°00' E 119°29'0 0.0
2017-Jul-19 11:29N 26°00' E 119°29'0 0.0
2017-Jul-19 10:59N 26°00' E 119°29'0 0.0
2017-Jul-19 10:29N 26°00' E 119°29'0 0.0
2017-Jul-19 09:59N 26°00' E 119°29'0 0.0
2017-Jul-19 09:29N 26°00' E 119°29'0 0.0
2017-Jul-19 08:47N 26°00' E 119°29'0 0.0
2017-Jul-19 08:23N 26°00' E 119°29'0 0.0
2017-Jul-19 07:59N 26°00' E 119°29'0 0.0
2017-Jul-19 07:29N 26°00' E 119°29'0 0.0
2017-Jul-19 06:59N 26°00' E 119°29'0 0.0
2017-Jul-19 06:29N 26°00' E 119°29'0 0.0
2017-Jul-19 05:59N 26°00' E 119°29'0 0.0
2017-Jul-19 05:17N 26°00' E 119°29'0 0.0
2017-Jul-19 04:47N 26°00' E 119°29'0 0.0
2017-Jul-19 04:23N 26°00' E 119°29'0 0.0
2017-Jul-19 03:59N 26°00' E 119°29'0 0.0
2017-Jul-19 03:29N 26°00' E 119°29'0 0.0
2017-Jul-19 02:53N 26°00' E 119°29'0 0.0
2017-Jul-19 02:29N 26°00' E 119°29'0 0.0
2017-Jul-19 01:53N 26°00' E 119°29'0 0.0
2017-Jul-19 01:29N 26°00' E 119°29'0 0.0
2017-Jul-19 01:00N 26°00' E 119°29'1 1.2
2017-Jul-19 00:30N 26°01' E 119°29'5 9.6
2017-Jul-19 00:00N 26°05' E 119°32'197 9.9
2017-Jul-18 04:03N 22°50' E 120°05'212.8
2017-Jul-18 03:52N 22°48' E 120°06'512.7
2017-Jul-18 03:30N 22°44' E 120°08'612.5
2017-Jul-18 03:00N 22°38' E 120°11'611.6
2017-Jul-18 02:30N 22°33' E 120°13'510.7
2017-Jul-18 02:00N 22°33' E 120°19'0 0.7
2017-Jul-18 01:23N 22°34' E 120°19'0 0.0
2017-Jul-18 00:32N 22°34' E 120°19'0 0.0
2017-Jul-18 00:29N 22°34' E 120°19'0 0.0
2017-Jul-17 23:53N 22°34' E 120°19'0 0.0
2017-Jul-17 23:29N 22°34' E 120°19'0 0.0
2017-Jul-17 22:59N 22°34' E 120°19'0 0.0
2017-Jul-17 22:29N 22°34' E 120°19'0 0.0
2017-Jul-17 21:56N 22°34' E 120°19'0 0.0
2017-Jul-17 21:26N 22°34' E 120°19'0 0.0
2017-Jul-17 20:59N 22°34' E 120°19'0 0.0
2017-Jul-17 20:23N 22°34' E 120°19'0 0.0
2017-Jul-17 19:59N 22°34' E 120°19'0 0.0
2017-Jul-17 19:23N 22°34' E 120°19'0 0.0
2017-Jul-17 18:53N 22°34' E 120°19'0 0.0
2017-Jul-17 18:29N 22°34' E 120°19'0 0.0
2017-Jul-17 17:56N 22°34' E 120°19'0 0.0
2017-Jul-17 17:23N 22°34' E 120°19'0 0.0
2017-Jul-17 16:56N 22°34' E 120°19'1 0.1
2017-Jul-17 07:57N 22°33' E 120°20'3 7.0
2017-Jul-17 07:30N 22°33' E 120°17'3 6.2
2017-Jul-17 07:01N 22°32' E 120°13'3 6.1
2017-Jul-17 06:30N 22°34' E 120°11'611.1
2017-Jul-17 06:00N 22°39' E 120°09'511.0
2017-Jul-17 05:31N 22°44' E 120°07'  
2017-Jul-15 00:05N 22°33' E 120°18'1 6.5
2017-Jul-15 00:00N 22°33' E 120°19'1 0.1
2017-Jul-14 13:10N 22°33' E 120°20'1 5.4
2017-Jul-14 13:00N 22°33' E 120°19'0 0.6
2017-Jul-14 12:30N 22°34' E 120°19'0 0.0
2017-Jul-14 10:15N 22°34' E 120°19'0 0.0
2017-Jul-14 09:45N 22°34' E 120°19'0 0.0
2017-Jul-14 09:30N 22°34' E 120°19'0 0.0
2017-Jul-14 09:00N 22°34' E 120°19'0 0.0
2017-Jul-14 08:27N 22°34' E 120°19'0 0.0
2017-Jul-14 08:00N 22°34' E 120°19'0 0.0
2017-Jul-14 07:30N 22°34' E 120°19'0 0.0
2017-Jul-14 07:00N 22°34' E 120°19'0 0.0
2017-Jul-14 06:27N 22°34' E 120°19'0 0.0
2017-Jul-14 06:00N 22°34' E 120°19'0 0.0
2017-Jul-14 05:27N 22°34' E 120°19'0 0.0
2017-Jul-14 04:54N 22°34' E 120°19'0 0.0
2017-Jul-14 04:27N 22°34' E 120°19'0 0.0
2017-Jul-14 04:00N 22°34' E 120°19'0 0.0
2017-Jul-14 03:30N 22°34' E 120°19'0 0.0
2017-Jul-14 03:00N 22°34' E 120°19'0 0.0
2017-Jul-14 02:30N 22°34' E 120°19'0 0.0
2017-Jul-14 01:54N 22°34' E 120°19'0 0.0
2017-Jul-14 01:27N 22°34' E 120°19'0 0.0
2017-Jul-14 01:00N 22°34' E 120°19'0 0.0
2017-Jul-14 00:30N 22°34' E 120°19'0 0.0
2017-Jul-14 00:00N 22°34' E 120°19'1 1.0
2017-Jul-13 23:28N 22°33' E 120°19'3 7.3
2017-Jul-13 23:00N 22°32' E 120°16'0 0.4
2017-Jul-13 22:29N 22°32' E 120°15'0 0.0
2017-Jul-13 21:59N 22°32' E 120°15'0 0.1
2017-Jul-13 21:29N 22°32' E 120°15'0 0.1
2017-Jul-13 20:59N 22°32' E 120°15'0 0.0
2017-Jul-13 20:29N 22°32' E 120°15'0 0.1
2017-Jul-13 19:59N 22°32' E 120°15'0 0.0
2017-Jul-13 19:29N 22°32' E 120°15'0 0.0
2017-Jul-13 18:59N 22°32' E 120°15'0 0.0
2017-Jul-13 18:29N 22°32' E 120°15'0 0.0
2017-Jul-13 17:59N 22°32' E 120°15'0 0.0
2017-Jul-13 17:29N 22°32' E 120°15'0 0.0
2017-Jul-13 16:59N 22°32' E 120°15'0 0.1
2017-Jul-13 16:26N 22°32' E 120°15'0 0.1
2017-Jul-13 15:59N 22°32' E 120°15'0 0.1
2017-Jul-13 15:30N 22°32' E 120°15'3 6.0
2017-Jul-13 15:00N 22°33' E 120°12'611.5
2017-Jul-13 14:30N 22°38' E 120°10'611.2
2017-Jul-13 14:00N 22°43' E 120°08'510.7
2017-Jul-13 13:30N 22°48' E 120°05'  

Dump ship's entire track history